Private Wetterstation Nrnberg - Katzwang
Wetterdaten: April 2015
Datum Temp. A. Feuchte A. Luftdruck Regen Wind Richtung Taupunkt Windchill Windben
01.04.2015 3,6 C 77 % 1014 hPa 3,6 l/m 3,8 km/h W-NW -0,3 C 2,6 C 3,1 km/h
02.04.2015 2,7 C 81 % 1012 hPa 9,8 l/m 5,7 km/h W-NW -0,2 C 0,9 C 4,7 km/h
03.04.2015 6,1 C 66 % 1016 hPa 1,0 l/m 6,6 km/h W-NW -0,1 C 4,5 C 5,5 km/h
04.04.2015 4,7 C 63 % 1012 hPa 0,0 l/m 0,0 km/h NO -2,0 C 4,7 C 0,0 km/h
05.04.2015 3,7 C 59 % 1019 hPa 0,0 l/m 6,6 km/h N-NO -4,1 C 1,4 C 5,5 km/h
06.04.2015 3,5 C 61 % 1025 hPa 0,0 l/m 0,9 km/h N-NO -3,6 C 3,5 C 0,8 km/h
07.04.2015 4,9 C 59 % 1031 hPa 0,0 l/m 0,6 km/h N-NO -3,0 C 4,9 C 0,5 km/h
08.04.2015 7,7 C 69 % 1028 hPa 0,0 l/m 8,5 km/h W-NW 2,2 C 4,8 C 7,1 km/h
09.04.2015 10,0 C 66 % 1024 hPa 0,0 l/m 3,2 km/h N-NO 3,7 C 9,4 C 2,6 km/h
10.04.2015 13,0 C 59 % 1018 hPa 0,0 l/m 3,2 km/h W-NW 4,5 C 12,5 C 2,6 km/h
11.04.2015 12,8 C 66 % 1020 hPa 0,0 l/m 0,0 km/h W-NW 6,2 C 12,8 C 0,0 km/h
12.04.2015 12,5 C 69 % 1026 hPa 0,0 l/m 0,0 km/h W-NW 6,9 C 12,5 C 0,0 km/h
13.04.2015 10,3 C 63 % 1025 hPa 0,0 l/m 2,5 km/h W-NW 3,4 C 9,8 C 2,1 km/h
14.04.2015 12,2 C 61 % 1024 hPa 0,0 l/m 9,4 km/h N 4,3 C 10,4 C 7,8 km/h
15.04.2015 15,5 C 53 % 1015 hPa 0,0 l/m 1,3 km/h W-NW 5,3 C 15,5 C 1,0 km/h
16.04.2015 16,1 C 56 % 1010 hPa 0,0 l/m 4,4 km/h W-NW 6,8 C 15,5 C 3,7 km/h
17.04.2015 11,4 C 62 % 1012 hPa 0,0 l/m 14,5 km/h N-NO 4,3 C 7,4 C 17,2 km/h
18.04.2015 6,9 C 58 % 1021 hPa 0,0 l/m 7,6 km/h N-NO -1,2 C 4,8 C 9,4 km/h
19.04.2015 9,2 C 53 % 1018 hPa 0,0 l/m 4,7 km/h NO -0,5 C 8,0 C 3,9 km/h
20.04.2015 11,5 C 52 % 1022 hPa 0,0 l/m 2,8 km/h N 1,3 C 11,0 C 2,3 km/h
21.04.2015 13,2 C 51 % 1024 hPa 0,0 l/m 0,0 km/h W-NW 2,6 C 13,2 C 0,0 km/h
22.04.2015 9,6 C 60 % 1020 hPa 0,0 l/m 0,9 km/h N-NO 1,5 C 9,6 C 0,8 km/h
23.04.2015 9,3 C 67 % 1015 hPa 1,0 l/m 4,7 km/h O 3,3 C 7,9 C 3,9 km/h
24.04.2015 12,4 C 56 % 1012 hPa 0,0 l/m 3,8 km/h W-NW 3,1 C 11,7 C 3,1 km/h
25.04.2015 13,3 C 72 % 1009 hPa 0,5 l/m 6,9 km/h W-NW 8,2 C 11,4 C 5,8 km/h
26.04.2015 16,8 C 66 % 1005 hPa 0,5 l/m 2,8 km/h W-NW 10,0 C 16,5 C 2,3 km/h
27.04.2015 16,7 C 69 % 999 hPa 2,6 l/m 8,8 km/h NO 10,6 C 15,5 C 7,3 km/h
28.04.2015 7,7 C 78 % 1013 hPa 15,5 l/m 16,1 km/h W-NW 4,0 C 2,3 C 18,3 km/h
29.04.2015 10,4 C 64 % 1015 hPa 0,0 l/m 0,0 km/h NO 3,2 C 10,4 C 0,0 km/h
30.04.2015 11,6 C 69 % 1012 hPa 0,5 l/m 2,2 km/h W-NW 6,0 C 11,3 C 1,8 km/h
Min-Datum 07.04.15 21.04.15 27.04.15 9 Tage 01.04.15 - 06.04.15 01.04.15 01.04.15
Min-Zeit 06:30 18:10 15:30 - 00:30 - 06:20 08:50 00:30
Minimum -3,4 C 28 % 998 hPa - 0,0 km/h - -6,0 C -13,5 C 0,0 km/h
Max-Datum 15.04.15 03.04.15 07.04.15 28.04.15 01.04.15 - 27.04.15 15.04.15 01.04.15
Max-Zeit 15:30 05:30 09:10 01:30 08:50 - 10:20 15:30 09:20
Maximum 25,9 C 86 % 1034 hPa 15,5 l/m 70,6 km/h
W-NW
- 12,8 C 25,9 C 122,1 km/h
W-NW
Durchschnitt 10,0 C 63 % 1017 hPa #35,2 l/m 4,4 km/h W-NW 2,9 C 8,9 C 4,1 km/h

Durchschnitt Minimum Temp.3,1 C
Durchschnitt Maximum Temp.17,0 C